sensor_id;sensor_type;location;lat;lon;timestamp;temperature;humidity
4637;DHT22;2331;48.806;9.140;2023-03-23T00:01:22;16.60;1.00
4637;DHT22;2331;48.806;9.140;2023-03-23T00:03:53;16.60;1.00
4637;DHT22;2331;48.806;9.140;2023-03-23T00:06:23;16.60;1.00
4637;DHT22;2331;48.806;9.140;2023-03-23T00:08:52;16.60;1.00
4637;DHT22;2331;48.806;9.140;2023-03-23T00:11:24;16.70;1.00
4637;DHT22;2331;48.806;9.140;2023-03-23T00:13:55;16.70;1.00
4637;DHT22;2331;48.806;9.140;2023-03-23T00:16:28;16.70;1.00
4637;DHT22;2331;48.806;9.140;2023-03-23T00:18:57;16.70;1.00
4637;DHT22;2331;48.806;9.140;2023-03-23T00:21:25;16.50;1.00
4637;DHT22;2331;48.806;9.140;2023-03-23T00:23:59;16.60;1.00
4637;DHT22;2331;48.806;9.140;2023-03-23T00:26:28;16.70;1.00
4637;DHT22;2331;48.806;9.140;2023-03-23T00:28:55;16.70;1.00
4637;DHT22;2331;48.806;9.140;2023-03-23T00:31:22;16.60;1.00
4637;DHT22;2331;48.806;9.140;2023-03-23T00:33:49;16.60;1.00
4637;DHT22;2331;48.806;9.140;2023-03-23T00:36:15;16.60;1.00
4637;DHT22;2331;48.806;9.140;2023-03-23T00:38:43;16.60;1.00
4637;DHT22;2331;48.806;9.140;2023-03-23T00:41:12;16.70;1.00
4637;DHT22;2331;48.806;9.140;2023-03-23T00:43:42;16.70;1.00
4637;DHT22;2331;48.806;9.140;2023-03-23T00:46:09;16.70;1.00
4637;DHT22;2331;48.806;9.140;2023-03-23T00:48:36;16.70;1.00
4637;DHT22;2331;48.806;9.140;2023-03-23T00:51:06;16.60;1.00
4637;DHT22;2331;48.806;9.140;2023-03-23T00:53:37;16.60;1.00
4637;DHT22;2331;48.806;9.140;2023-03-23T00:56:05;16.60;1.00
4637;DHT22;2331;48.806;9.140;2023-03-23T00:58:32;16.60;1.00
4637;DHT22;2331;48.806;9.140;2023-03-23T01:01:00;16.70;1.00
4637;DHT22;2331;48.806;9.140;2023-03-23T01:03:27;16.60;1.00
4637;DHT22;2331;48.806;9.140;2023-03-23T01:05:54;16.70;1.00
4637;DHT22;2331;48.806;9.140;2023-03-23T01:08:22;16.60;1.00
4637;DHT22;2331;48.806;9.140;2023-03-23T01:10:50;16.60;1.00
4637;DHT22;2331;48.806;9.140;2023-03-23T01:13:17;16.60;1.00
4637;DHT22;2331;48.806;9.140;2023-03-23T01:15:44;16.60;1.00
4637;DHT22;2331;48.806;9.140;2023-03-23T01:18:13;16.60;1.00
4637;DHT22;2331;48.806;9.140;2023-03-23T01:20:40;16.50;1.00
4637;DHT22;2331;48.806;9.140;2023-03-23T01:23:08;16.60;1.00
4637;DHT22;2331;48.806;9.140;2023-03-23T01:25:36;16.50;1.00
4637;DHT22;2331;48.806;9.140;2023-03-23T01:28:03;16.50;1.00
4637;DHT22;2331;48.806;9.140;2023-03-23T01:30:30;16.50;1.00
4637;DHT22;2331;48.806;9.140;2023-03-23T01:32:57;16.50;1.00
4637;DHT22;2331;48.806;9.140;2023-03-23T01:35:25;16.60;1.00
4637;DHT22;2331;48.806;9.140;2023-03-23T01:37:52;16.50;1.00
4637;DHT22;2331;48.806;9.140;2023-03-23T01:40:19;16.50;1.00
4637;DHT22;2331;48.806;9.140;2023-03-23T01:42:45;16.50;1.00
4637;DHT22;2331;48.806;9.140;2023-03-23T01:45:25;16.50;1.00
4637;DHT22;2331;48.806;9.140;2023-03-23T01:47:57;16.50;1.00
4637;DHT22;2331;48.806;9.140;2023-03-23T01:50:28;16.50;1.00
4637;DHT22;2331;48.806;9.140;2023-03-23T01:52:58;16.60;1.00
4637;DHT22;2331;48.806;9.140;2023-03-23T01:55:26;16.70;1.00
4637;DHT22;2331;48.806;9.140;2023-03-23T01:57:55;16.60;1.00
4637;DHT22;2331;48.806;9.140;2023-03-23T02:00:23;16.50;1.00
4637;DHT22;2331;48.806;9.140;2023-03-23T02:02:52;16.50;1.00
4637;DHT22;2331;48.806;9.140;2023-03-23T02:05:26;16.50;1.00
4637;DHT22;2331;48.806;9.140;2023-03-23T02:07:54;16.60;1.00
4637;DHT22;2331;48.806;9.140;2023-03-23T02:10:24;16.60;1.00
4637;DHT22;2331;48.806;9.140;2023-03-23T02:12:51;16.60;1.00
4637;DHT22;2331;48.806;9.140;2023-03-23T02:15:18;16.60;1.00
4637;DHT22;2331;48.806;9.140;2023-03-23T02:17:48;16.60;1.00
4637;DHT22;2331;48.806;9.140;2023-03-23T02:20:26;16.70;1.00
4637;DHT22;2331;48.806;9.140;2023-03-23T02:23:09;16.60;1.00
4637;DHT22;2331;48.806;9.140;2023-03-23T02:25:58;16.60;1.00
4637;DHT22;2331;48.806;9.140;2023-03-23T02:31:55;16.60;1.00
4637;DHT22;2331;48.806;9.140;2023-03-23T02:34:29;16.60;1.00
4637;DHT22;2331;48.806;9.140;2023-03-23T02:37:00;16.60;1.00
4637;DHT22;2331;48.806;9.140;2023-03-23T02:39:30;16.60;1.00
4637;DHT22;2331;48.806;9.140;2023-03-23T02:42:02;16.70;1.00
4637;DHT22;2331;48.806;9.140;2023-03-23T02:44:30;16.50;1.00
4637;DHT22;2331;48.806;9.140;2023-03-23T02:46:59;16.50;1.00
4637;DHT22;2331;48.806;9.140;2023-03-23T02:49:29;16.50;1.00
4637;DHT22;2331;48.806;9.140;2023-03-23T02:51:59;16.40;1.00
4637;DHT22;2331;48.806;9.140;2023-03-23T02:54:26;16.40;1.00
4637;DHT22;2331;48.806;9.140;2023-03-23T02:56:54;16.30;1.00
4637;DHT22;2331;48.806;9.140;2023-03-23T02:59:22;16.40;1.00
4637;DHT22;2331;48.806;9.140;2023-03-23T03:02:03;16.40;1.00
4637;DHT22;2331;48.806;9.140;2023-03-23T03:04:34;16.30;1.00
4637;DHT22;2331;48.806;9.140;2023-03-23T03:07:18;16.40;1.00
4637;DHT22;2331;48.806;9.140;2023-03-23T03:09:52;16.30;1.00
4637;DHT22;2331;48.806;9.140;2023-03-23T03:12:28;16.30;1.00
4637;DHT22;2331;48.806;9.140;2023-03-23T03:15:07;16.30;1.00
4637;DHT22;2331;48.806;9.140;2023-03-23T03:17:38;16.30;1.00
4637;DHT22;2331;48.806;9.140;2023-03-23T03:20:10;16.30;1.00
4637;DHT22;2331;48.806;9.140;2023-03-23T03:22:41;16.30;1.00
4637;DHT22;2331;48.806;9.140;2023-03-23T03:25:10;16.30;1.00
4637;DHT22;2331;48.806;9.140;2023-03-23T03:27:40;16.30;1.00
4637;DHT22;2331;48.806;9.140;2023-03-23T03:30:10;16.40;1.00
4637;DHT22;2331;48.806;9.140;2023-03-23T03:32:42;16.30;1.00
4637;DHT22;2331;48.806;9.140;2023-03-23T03:35:13;16.30;1.00
4637;DHT22;2331;48.806;9.140;2023-03-23T03:37:40;16.30;1.00
4637;DHT22;2331;48.806;9.140;2023-03-23T03:40:10;16.30;1.00
4637;DHT22;2331;48.806;9.140;2023-03-23T03:42:38;16.40;1.00
4637;DHT22;2331;48.806;9.140;2023-03-23T03:45:07;16.30;1.00
4637;DHT22;2331;48.806;9.140;2023-03-23T03:47:34;16.30;1.00
4637;DHT22;2331;48.806;9.140;2023-03-23T03:50:01;16.20;1.00
4637;DHT22;2331;48.806;9.140;2023-03-23T03:52:29;16.20;1.00
4637;DHT22;2331;48.806;9.140;2023-03-23T03:54:57;16.20;1.00
4637;DHT22;2331;48.806;9.140;2023-03-23T03:57:24;16.30;1.00
4637;DHT22;2331;48.806;9.140;2023-03-23T03:59:51;16.20;1.00
4637;DHT22;2331;48.806;9.140;2023-03-23T04:02:18;16.30;1.00
4637;DHT22;2331;48.806;9.140;2023-03-23T04:04:46;16.30;1.00
4637;DHT22;2331;48.806;9.140;2023-03-23T04:07:13;16.30;1.00
4637;DHT22;2331;48.806;9.140;2023-03-23T04:09:43;16.30;1.00
4637;DHT22;2331;48.806;9.140;2023-03-23T04:12:12;16.30;1.00
4637;DHT22;2331;48.806;9.140;2023-03-23T04:14:38;16.30;1.00
4637;DHT22;2331;48.806;9.140;2023-03-23T04:17:05;16.30;1.00
4637;DHT22;2331;48.806;9.140;2023-03-23T04:19:32;16.20;1.00
4637;DHT22;2331;48.806;9.140;2023-03-23T04:21:59;16.40;1.00
4637;DHT22;2331;48.806;9.140;2023-03-23T04:24:26;16.30;1.00
4637;DHT22;2331;48.806;9.140;2023-03-23T04:26:57;16.30;1.00
4637;DHT22;2331;48.806;9.140;2023-03-23T04:29:24;16.30;1.00
4637;DHT22;2331;48.806;9.140;2023-03-23T04:31:52;16.40;1.00
4637;DHT22;2331;48.806;9.140;2023-03-23T04:34:21;16.40;1.00
4637;DHT22;2331;48.806;9.140;2023-03-23T04:36:49;16.40;1.00
4637;DHT22;2331;48.806;9.140;2023-03-23T04:39:16;16.30;1.00
4637;DHT22;2331;48.806;9.140;2023-03-23T04:41:43;16.40;1.00
4637;DHT22;2331;48.806;9.140;2023-03-23T04:44:13;16.30;1.00
4637;DHT22;2331;48.806;9.140;2023-03-23T04:46:43;16.40;1.00
4637;DHT22;2331;48.806;9.140;2023-03-23T04:49:16;16.40;1.00
4637;DHT22;2331;48.806;9.140;2023-03-23T04:51:47;16.40;1.00
4637;DHT22;2331;48.806;9.140;2023-03-23T04:54:16;16.30;1.00
4637;DHT22;2331;48.806;9.140;2023-03-23T04:56:45;16.40;1.00
4637;DHT22;2331;48.806;9.140;2023-03-23T04:59:13;16.40;1.00
4637;DHT22;2331;48.806;9.140;2023-03-23T05:01:40;16.40;1.00
4637;DHT22;2331;48.806;9.140;2023-03-23T05:04:11;16.40;1.00
4637;DHT22;2331;48.806;9.140;2023-03-23T05:06:42;16.40;1.00
4637;DHT22;2331;48.806;9.140;2023-03-23T05:09:10;16.40;1.00
4637;DHT22;2331;48.806;9.140;2023-03-23T05:11:37;16.40;1.00
4637;DHT22;2331;48.806;9.140;2023-03-23T05:14:03;16.40;1.00
4637;DHT22;2331;48.806;9.140;2023-03-23T05:16:32;16.30;1.00
4637;DHT22;2331;48.806;9.140;2023-03-23T05:18:58;16.30;1.00
4637;DHT22;2331;48.806;9.140;2023-03-23T05:21:25;16.30;1.00
4637;DHT22;2331;48.806;9.140;2023-03-23T05:23:53;16.30;1.00
4637;DHT22;2331;48.806;9.140;2023-03-23T05:26:22;16.30;1.00
4637;DHT22;2331;48.806;9.140;2023-03-23T05:28:50;16.40;1.00
4637;DHT22;2331;48.806;9.140;2023-03-23T05:31:18;16.40;1.00
4637;DHT22;2331;48.806;9.140;2023-03-23T05:33:46;16.50;1.00
4637;DHT22;2331;48.806;9.140;2023-03-23T05:36:13;16.50;1.00
4637;DHT22;2331;48.806;9.140;2023-03-23T05:38:41;16.50;1.00
4637;DHT22;2331;48.806;9.140;2023-03-23T05:41:10;16.50;1.00
4637;DHT22;2331;48.806;9.140;2023-03-23T05:43:39;16.40;1.00
4637;DHT22;2331;48.806;9.140;2023-03-23T05:46:06;16.50;1.00
4637;DHT22;2331;48.806;9.140;2023-03-23T05:48:33;16.40;1.00
4637;DHT22;2331;48.806;9.140;2023-03-23T05:51:03;16.40;1.00
4637;DHT22;2331;48.806;9.140;2023-03-23T05:53:30;16.40;1.00
4637;DHT22;2331;48.806;9.140;2023-03-23T05:55:59;16.50;1.00
4637;DHT22;2331;48.806;9.140;2023-03-23T05:58:26;16.50;1.00
4637;DHT22;2331;48.806;9.140;2023-03-23T06:00:53;16.50;1.00
4637;DHT22;2331;48.806;9.140;2023-03-23T06:03:20;16.50;1.00
4637;DHT22;2331;48.806;9.140;2023-03-23T06:05:48;16.50;1.00
4637;DHT22;2331;48.806;9.140;2023-03-23T06:08:16;16.60;1.00
4637;DHT22;2331;48.806;9.140;2023-03-23T06:10:44;16.60;1.00
4637;DHT22;2331;48.806;9.140;2023-03-23T06:13:11;16.60;1.00
4637;DHT22;2331;48.806;9.140;2023-03-23T06:15:38;16.60;1.00
4637;DHT22;2331;48.806;9.140;2023-03-23T06:18:05;16.60;1.00
4637;DHT22;2331;48.806;9.140;2023-03-23T06:20:32;16.60;1.00
4637;DHT22;2331;48.806;9.140;2023-03-23T06:23:00;16.70;1.00
4637;DHT22;2331;48.806;9.140;2023-03-23T06:25:30;16.70;1.00
4637;DHT22;2331;48.806;9.140;2023-03-23T06:27:57;16.80;1.00
4637;DHT22;2331;48.806;9.140;2023-03-23T06:30:24;16.80;1.00
4637;DHT22;2331;48.806;9.140;2023-03-23T06:32:52;16.80;1.00
4637;DHT22;2331;48.806;9.140;2023-03-23T06:35:19;16.80;1.00
4637;DHT22;2331;48.806;9.140;2023-03-23T06:37:46;16.80;1.00
4637;DHT22;2331;48.806;9.140;2023-03-23T06:40:13;16.70;1.00
4637;DHT22;2331;48.806;9.140;2023-03-23T06:42:41;16.70;1.00
4637;DHT22;2331;48.806;9.140;2023-03-23T06:45:08;16.60;1.00
4637;DHT22;2331;48.806;9.140;2023-03-23T06:47:35;16.60;1.00
4637;DHT22;2331;48.806;9.140;2023-03-23T06:50:02;16.50;1.00
4637;DHT22;2331;48.806;9.140;2023-03-23T06:52:29;16.50;1.00
4637;DHT22;2331;48.806;9.140;2023-03-23T06:54:56;16.50;1.00
4637;DHT22;2331;48.806;9.140;2023-03-23T06:57:22;16.60;1.00
4637;DHT22;2331;48.806;9.140;2023-03-23T06:59:50;16.60;1.00
4637;DHT22;2331;48.806;9.140;2023-03-23T07:02:17;16.60;1.00
4637;DHT22;2331;48.806;9.140;2023-03-23T07:04:44;16.60;1.00
4637;DHT22;2331;48.806;9.140;2023-03-23T07:07:11;16.70;1.00
4637;DHT22;2331;48.806;9.140;2023-03-23T07:09:40;16.70;1.00
4637;DHT22;2331;48.806;9.140;2023-03-23T07:12:07;16.70;1.00
4637;DHT22;2331;48.806;9.140;2023-03-23T07:14:35;16.80;1.00
4637;DHT22;2331;48.806;9.140;2023-03-23T07:17:04;16.80;1.00
4637;DHT22;2331;48.806;9.140;2023-03-23T07:19:31;16.70;1.00
4637;DHT22;2331;48.806;9.140;2023-03-23T07:21:58;16.70;1.00
4637;DHT22;2331;48.806;9.140;2023-03-23T07:24:25;16.70;1.00
4637;DHT22;2331;48.806;9.140;2023-03-23T07:26:52;16.70;1.00
4637;DHT22;2331;48.806;9.140;2023-03-23T07:29:18;16.80;1.00
4637;DHT22;2331;48.806;9.140;2023-03-23T07:31:45;16.80;1.00
4637;DHT22;2331;48.806;9.140;2023-03-23T07:34:13;16.70;1.00
4637;DHT22;2331;48.806;9.140;2023-03-23T07:36:40;16.80;1.00
4637;DHT22;2331;48.806;9.140;2023-03-23T07:39:07;16.80;1.00
4637;DHT22;2331;48.806;9.140;2023-03-23T07:41:34;16.80;1.00
4637;DHT22;2331;48.806;9.140;2023-03-23T07:44:01;16.90;1.00
4637;DHT22;2331;48.806;9.140;2023-03-23T07:46:28;17.00;1.00
4637;DHT22;2331;48.806;9.140;2023-03-23T07:48:55;16.90;1.00
4637;DHT22;2331;48.806;9.140;2023-03-23T07:51:23;17.00;1.00
4637;DHT22;2331;48.806;9.140;2023-03-23T07:53:50;17.10;1.00
4637;DHT22;2331;48.806;9.140;2023-03-23T07:56:18;17.00;1.00
4637;DHT22;2331;48.806;9.140;2023-03-23T07:58:45;17.10;1.00
4637;DHT22;2331;48.806;9.140;2023-03-23T08:01:12;17.10;1.00
4637;DHT22;2331;48.806;9.140;2023-03-23T08:03:39;17.20;1.00
4637;DHT22;2331;48.806;9.140;2023-03-23T08:06:07;17.20;1.00
4637;DHT22;2331;48.806;9.140;2023-03-23T08:08:36;17.20;1.00
4637;DHT22;2331;48.806;9.140;2023-03-23T08:11:05;17.20;1.00
4637;DHT22;2331;48.806;9.140;2023-03-23T08:13:32;17.20;1.00
4637;DHT22;2331;48.806;9.140;2023-03-23T08:16:00;17.30;1.00
4637;DHT22;2331;48.806;9.140;2023-03-23T08:18:28;17.30;1.00
4637;DHT22;2331;48.806;9.140;2023-03-23T08:20:55;17.20;1.00
4637;DHT22;2331;48.806;9.140;2023-03-23T08:23:22;17.20;1.00
4637;DHT22;2331;48.806;9.140;2023-03-23T08:25:50;17.20;1.00
4637;DHT22;2331;48.806;9.140;2023-03-23T08:28:17;17.30;1.00
4637;DHT22;2331;48.806;9.140;2023-03-23T08:30:43;17.30;1.00
4637;DHT22;2331;48.806;9.140;2023-03-23T08:33:10;17.30;1.00
4637;DHT22;2331;48.806;9.140;2023-03-23T08:35:37;17.10;1.00
4637;DHT22;2331;48.806;9.140;2023-03-23T08:38:04;17.10;1.00
4637;DHT22;2331;48.806;9.140;2023-03-23T08:40:31;17.20;1.00
4637;DHT22;2331;48.806;9.140;2023-03-23T08:43:00;17.20;1.00
4637;DHT22;2331;48.806;9.140;2023-03-23T08:45:27;17.30;1.00
4637;DHT22;2331;48.806;9.140;2023-03-23T08:47:54;17.30;1.00
4637;DHT22;2331;48.806;9.140;2023-03-23T08:50:23;17.30;1.00
4637;DHT22;2331;48.806;9.140;2023-03-23T08:52:51;17.20;1.00
4637;DHT22;2331;48.806;9.140;2023-03-23T08:55:19;17.20;1.00
4637;DHT22;2331;48.806;9.140;2023-03-23T08:57:47;17.30;1.00
4637;DHT22;2331;48.806;9.140;2023-03-23T09:00:19;17.20;1.00
4637;DHT22;2331;48.806;9.140;2023-03-23T09:02:48;17.10;1.00
4637;DHT22;2331;48.806;9.140;2023-03-23T09:05:17;17.00;1.00
4637;DHT22;2331;48.806;9.140;2023-03-23T09:07:47;17.10;1.00
4637;DHT22;2331;48.806;9.140;2023-03-23T09:10:14;17.00;1.00
4637;DHT22;2331;48.806;9.140;2023-03-23T09:12:43;17.00;1.00
4637;DHT22;2331;48.806;9.140;2023-03-23T09:15:14;17.20;1.00
4637;DHT22;2331;48.806;9.140;2023-03-23T09:17:43;17.00;1.00
4637;DHT22;2331;48.806;9.140;2023-03-23T09:20:12;17.10;1.00
4637;DHT22;2331;48.806;9.140;2023-03-23T09:22:41;17.00;1.00
4637;DHT22;2331;48.806;9.140;2023-03-23T09:25:10;17.10;1.00
4637;DHT22;2331;48.806;9.140;2023-03-23T09:27:37;17.20;1.00
4637;DHT22;2331;48.806;9.140;2023-03-23T09:30:06;17.20;1.00
4637;DHT22;2331;48.806;9.140;2023-03-23T09:32:34;17.30;1.00
4637;DHT22;2331;48.806;9.140;2023-03-23T09:35:05;17.30;1.00
4637;DHT22;2331;48.806;9.140;2023-03-23T09:37:34;17.30;1.00
4637;DHT22;2331;48.806;9.140;2023-03-23T09:40:01;17.40;1.00
4637;DHT22;2331;48.806;9.140;2023-03-23T09:42:40;17.30;1.00
4637;DHT22;2331;48.806;9.140;2023-03-23T09:45:16;17.40;1.00
4637;DHT22;2331;48.806;9.140;2023-03-23T09:47:54;17.30;1.00
4637;DHT22;2331;48.806;9.140;2023-03-23T09:50:28;17.30;1.00
4637;DHT22;2331;48.806;9.140;2023-03-23T09:53:00;17.40;1.00
4637;DHT22;2331;48.806;9.140;2023-03-23T09:55:28;17.40;1.00
4637;DHT22;2331;48.806;9.140;2023-03-23T09:57:58;17.40;1.00
4637;DHT22;2331;48.806;9.140;2023-03-23T10:00:31;17.50;1.00
4637;DHT22;2331;48.806;9.140;2023-03-23T10:03:02;17.50;1.00
4637;DHT22;2331;48.806;9.140;2023-03-23T10:05:34;17.60;1.00
4637;DHT22;2331;48.806;9.140;2023-03-23T10:08:09;17.70;1.00
4637;DHT22;2331;48.806;9.140;2023-03-23T10:10:45;17.70;1.00
4637;DHT22;2331;48.806;9.140;2023-03-23T10:13:21;17.70;1.00
4637;DHT22;2331;48.806;9.140;2023-03-23T10:15:50;17.80;1.00
4637;DHT22;2331;48.806;9.140;2023-03-23T10:18:22;17.70;1.00
4637;DHT22;2331;48.806;9.140;2023-03-23T10:20:55;17.80;1.00
4637;DHT22;2331;48.806;9.140;2023-03-23T10:23:47;17.60;1.00
4637;DHT22;2331;48.806;9.140;2023-03-23T10:26:25;17.60;1.00
4637;DHT22;2331;48.806;9.140;2023-03-23T10:28:56;17.70;1.00
4637;DHT22;2331;48.806;9.140;2023-03-23T10:31:30;17.70;1.00
4637;DHT22;2331;48.806;9.140;2023-03-23T10:34:03;17.80;1.00
4637;DHT22;2331;48.806;9.140;2023-03-23T10:36:35;17.80;1.00
4637;DHT22;2331;48.806;9.140;2023-03-23T10:39:06;17.90;1.00
4637;DHT22;2331;48.806;9.140;2023-03-23T10:41:35;17.90;1.00
4637;DHT22;2331;48.806;9.140;2023-03-23T10:44:09;17.90;1.00
4637;DHT22;2331;48.806;9.140;2023-03-23T10:46:41;18.00;1.00
4637;DHT22;2331;48.806;9.140;2023-03-23T10:49:15;17.90;1.00
4637;DHT22;2331;48.806;9.140;2023-03-23T10:51:47;17.90;1.00
4637;DHT22;2331;48.806;9.140;2023-03-23T10:54:26;17.80;1.00
4637;DHT22;2331;48.806;9.140;2023-03-23T10:56:53;17.80;1.00
4637;DHT22;2331;48.806;9.140;2023-03-23T10:59:30;17.90;1.00
4637;DHT22;2331;48.806;9.140;2023-03-23T11:02:02;18.10;1.00
4637;DHT22;2331;48.806;9.140;2023-03-23T11:04:30;18.20;1.00
4637;DHT22;2331;48.806;9.140;2023-03-23T11:07:01;18.20;1.00
4637;DHT22;2331;48.806;9.140;2023-03-23T11:09:36;18.10;1.00
4637;DHT22;2331;48.806;9.140;2023-03-23T11:12:04;18.10;1.00
4637;DHT22;2331;48.806;9.140;2023-03-23T11:14:33;18.20;1.00
4637;DHT22;2331;48.806;9.140;2023-03-23T11:17:02;18.20;1.00
4637;DHT22;2331;48.806;9.140;2023-03-23T11:19:33;18.20;1.00
4637;DHT22;2331;48.806;9.140;2023-03-23T11:22:07;18.10;1.00
4637;DHT22;2331;48.806;9.140;2023-03-23T11:24:36;18.20;1.00
4637;DHT22;2331;48.806;9.140;2023-03-23T11:27:04;18.20;1.00
4637;DHT22;2331;48.806;9.140;2023-03-23T11:29:33;18.10;1.00
4637;DHT22;2331;48.806;9.140;2023-03-23T11:32:04;18.10;1.00
4637;DHT22;2331;48.806;9.140;2023-03-23T11:34:34;18.20;1.00
4637;DHT22;2331;48.806;9.140;2023-03-23T11:37:05;18.40;1.00
4637;DHT22;2331;48.806;9.140;2023-03-23T11:39:46;18.50;1.00
4637;DHT22;2331;48.806;9.140;2023-03-23T11:42:19;18.60;1.00
4637;DHT22;2331;48.806;9.140;2023-03-23T11:44:46;18.60;1.00
4637;DHT22;2331;48.806;9.140;2023-03-23T11:47:17;18.70;1.00
4637;DHT22;2331;48.806;9.140;2023-03-23T11:49:55;18.70;1.00
4637;DHT22;2331;48.806;9.140;2023-03-23T11:52:29;18.70;1.00
4637;DHT22;2331;48.806;9.140;2023-03-23T11:55:02;18.70;1.00
4637;DHT22;2331;48.806;9.140;2023-03-23T11:57:31;18.70;1.00
4637;DHT22;2331;48.806;9.140;2023-03-23T11:59:57;18.60;1.00
4637;DHT22;2331;48.806;9.140;2023-03-23T12:05:42;18.60;1.00
4637;DHT22;2331;48.806;9.140;2023-03-23T12:08:24;18.80;1.00
4637;DHT22;2331;48.806;9.140;2023-03-23T12:11:01;18.90;1.00
4637;DHT22;2331;48.806;9.140;2023-03-23T12:13:41;19.00;1.00
4637;DHT22;2331;48.806;9.140;2023-03-23T12:16:22;19.00;1.00
4637;DHT22;2331;48.806;9.140;2023-03-23T12:18:56;18.80;1.00
4637;DHT22;2331;48.806;9.140;2023-03-23T12:21:30;18.80;1.00
4637;DHT22;2331;48.806;9.140;2023-03-23T12:24:06;18.90;1.00
4637;DHT22;2331;48.806;9.140;2023-03-23T12:26:39;18.90;1.00
4637;DHT22;2331;48.806;9.140;2023-03-23T12:29:24;18.90;1.00
4637;DHT22;2331;48.806;9.140;2023-03-23T12:32:18;19.00;1.00
4637;DHT22;2331;48.806;9.140;2023-03-23T12:34:50;18.90;1.00
4637;DHT22;2331;48.806;9.140;2023-03-23T12:37:30;18.90;1.00
4637;DHT22;2331;48.806;9.140;2023-03-23T12:40:22;19.00;1.00
4637;DHT22;2331;48.806;9.140;2023-03-23T12:42:57;18.90;1.00
4637;DHT22;2331;48.806;9.140;2023-03-23T12:45:42;19.00;1.00
4637;DHT22;2331;48.806;9.140;2023-03-23T12:48:13;19.10;1.00
4637;DHT22;2331;48.806;9.140;2023-03-23T12:50:45;19.10;1.00
4637;DHT22;2331;48.806;9.140;2023-03-23T12:53:18;19.20;1.00
4637;DHT22;2331;48.806;9.140;2023-03-23T12:55:49;19.30;1.00
4637;DHT22;2331;48.806;9.140;2023-03-23T12:58:20;19.40;1.00
4637;DHT22;2331;48.806;9.140;2023-03-23T13:00:55;19.50;1.00
4637;DHT22;2331;48.806;9.140;2023-03-23T13:03:27;19.40;1.00
4637;DHT22;2331;48.806;9.140;2023-03-23T13:06:04;19.10;1.00
4637;DHT22;2331;48.806;9.140;2023-03-23T13:08:36;19.10;1.00
4637;DHT22;2331;48.806;9.140;2023-03-23T13:11:08;19.20;1.00
4637;DHT22;2331;48.806;9.140;2023-03-23T13:13:50;19.30;1.00
4637;DHT22;2331;48.806;9.140;2023-03-23T13:16:26;19.40;1.00
4637;DHT22;2331;48.806;9.140;2023-03-23T13:19:03;19.30;1.00
4637;DHT22;2331;48.806;9.140;2023-03-23T13:21:37;19.60;1.00
4637;DHT22;2331;48.806;9.140;2023-03-23T13:24:10;19.40;1.00
4637;DHT22;2331;48.806;9.140;2023-03-23T13:26:41;19.40;1.00
4637;DHT22;2331;48.806;9.140;2023-03-23T13:29:14;19.30;1.00
4637;DHT22;2331;48.806;9.140;2023-03-23T13:31:45;19.30;1.00
4637;DHT22;2331;48.806;9.140;2023-03-23T13:34:18;19.50;1.00
4637;DHT22;2331;48.806;9.140;2023-03-23T13:36:52;19.50;1.00
4637;DHT22;2331;48.806;9.140;2023-03-23T13:39:21;19.70;1.00
4637;DHT22;2331;48.806;9.140;2023-03-23T13:42:03;19.70;1.00
4637;DHT22;2331;48.806;9.140;2023-03-23T13:44:44;19.70;1.00
4637;DHT22;2331;48.806;9.140;2023-03-23T13:47:26;19.80;1.00
4637;DHT22;2331;48.806;9.140;2023-03-23T13:49:55;19.80;1.00
4637;DHT22;2331;48.806;9.140;2023-03-23T13:52:24;19.80;1.00
4637;DHT22;2331;48.806;9.140;2023-03-23T13:55:17;19.90;1.00
4637;DHT22;2331;48.806;9.140;2023-03-23T13:57:50;19.80;1.00
4637;DHT22;2331;48.806;9.140;2023-03-23T14:00:48;19.90;1.00
4637;DHT22;2331;48.806;9.140;2023-03-23T14:03:19;19.90;1.00
4637;DHT22;2331;48.806;9.140;2023-03-23T14:05:59;19.90;1.00
4637;DHT22;2331;48.806;9.140;2023-03-23T14:08:38;19.90;1.00
4637;DHT22;2331;48.806;9.140;2023-03-23T14:11:15;20.00;1.00
4637;DHT22;2331;48.806;9.140;2023-03-23T14:13:49;20.10;1.00
4637;DHT22;2331;48.806;9.140;2023-03-23T14:16:20;20.20;1.00
4637;DHT22;2331;48.806;9.140;2023-03-23T14:18:53;20.00;1.00
4637;DHT22;2331;48.806;9.140;2023-03-23T14:21:32;20.00;1.00
4637;DHT22;2331;48.806;9.140;2023-03-23T14:24:01;20.10;1.00
4637;DHT22;2331;48.806;9.140;2023-03-23T14:26:28;20.20;1.00
4637;DHT22;2331;48.806;9.140;2023-03-23T14:28:55;20.30;1.00
4637;DHT22;2331;48.806;9.140;2023-03-23T14:31:25;20.30;1.00
4637;DHT22;2331;48.806;9.140;2023-03-23T14:33:56;20.40;1.00
4637;DHT22;2331;48.806;9.140;2023-03-23T14:36:24;20.40;1.00
4637;DHT22;2331;48.806;9.140;2023-03-23T14:39:02;20.40;1.00
4637;DHT22;2331;48.806;9.140;2023-03-23T14:41:30;20.40;1.00
4637;DHT22;2331;48.806;9.140;2023-03-23T14:44:00;20.40;1.00
4637;DHT22;2331;48.806;9.140;2023-03-23T14:46:30;20.20;1.00
4637;DHT22;2331;48.806;9.140;2023-03-23T14:48:59;20.10;1.00
4637;DHT22;2331;48.806;9.140;2023-03-23T14:51:26;20.00;1.00
4637;DHT22;2331;48.806;9.140;2023-03-23T14:53:54;20.00;1.00
4637;DHT22;2331;48.806;9.140;2023-03-23T14:56:22;19.90;1.00
4637;DHT22;2331;48.806;9.140;2023-03-23T14:58:53;20.00;1.00
4637;DHT22;2331;48.806;9.140;2023-03-23T15:01:23;20.00;1.00
4637;DHT22;2331;48.806;9.140;2023-03-23T15:03:54;20.00;1.00
4637;DHT22;2331;48.806;9.140;2023-03-23T15:06:25;20.10;1.00
4637;DHT22;2331;48.806;9.140;2023-03-23T15:08:55;20.10;1.00
4637;DHT22;2331;48.806;9.140;2023-03-23T15:11:25;20.20;1.00
4637;DHT22;2331;48.806;9.140;2023-03-23T15:13:55;20.00;1.00
4637;DHT22;2331;48.806;9.140;2023-03-23T15:16:26;19.90;1.00
4637;DHT22;2331;48.806;9.140;2023-03-23T15:18:57;20.00;1.00
4637;DHT22;2331;48.806;9.140;2023-03-23T15:21:27;19.90;1.00
4637;DHT22;2331;48.806;9.140;2023-03-23T15:23:55;19.90;1.00
4637;DHT22;2331;48.806;9.140;2023-03-23T15:26:31;20.10;1.00
4637;DHT22;2331;48.806;9.140;2023-03-23T15:29:11;20.10;1.00
4637;DHT22;2331;48.806;9.140;2023-03-23T15:31:42;20.10;1.00
4637;DHT22;2331;48.806;9.140;2023-03-23T15:34:17;20.10;1.00
4637;DHT22;2331;48.806;9.140;2023-03-23T15:36:45;20.00;1.00
4637;DHT22;2331;48.806;9.140;2023-03-23T15:39:13;20.00;1.00
4637;DHT22;2331;48.806;9.140;2023-03-23T15:41:47;20.10;1.00
4637;DHT22;2331;48.806;9.140;2023-03-23T15:44:30;20.00;1.00
4637;DHT22;2331;48.806;9.140;2023-03-23T15:47:13;19.90;1.00
4637;DHT22;2331;48.806;9.140;2023-03-23T15:49:43;19.80;1.00
4637;DHT22;2331;48.806;9.140;2023-03-23T15:52:11;19.70;1.00
4637;DHT22;2331;48.806;9.140;2023-03-23T15:54:40;19.70;1.00
4637;DHT22;2331;48.806;9.140;2023-03-23T15:57:12;19.80;1.00
4637;DHT22;2331;48.806;9.140;2023-03-23T15:59:38;19.70;1.00
4637;DHT22;2331;48.806;9.140;2023-03-23T16:02:05;19.70;1.00
4637;DHT22;2331;48.806;9.140;2023-03-23T16:04:32;19.60;1.00
4637;DHT22;2331;48.806;9.140;2023-03-23T16:07:00;19.60;1.00
4637;DHT22;2331;48.806;9.140;2023-03-23T16:09:27;19.60;1.00
4637;DHT22;2331;48.806;9.140;2023-03-23T16:11:54;19.50;1.00
4637;DHT22;2331;48.806;9.140;2023-03-23T16:14:20;19.40;1.00
4637;DHT22;2331;48.806;9.140;2023-03-23T16:16:49;19.40;1.00
4637;DHT22;2331;48.806;9.140;2023-03-23T16:19:17;19.30;1.00
4637;DHT22;2331;48.806;9.140;2023-03-23T16:21:48;19.40;1.00
4637;DHT22;2331;48.806;9.140;2023-03-23T16:24:17;19.40;1.00
4637;DHT22;2331;48.806;9.140;2023-03-23T16:26:44;19.20;1.00
4637;DHT22;2331;48.806;9.140;2023-03-23T16:29:12;19.20;1.00
4637;DHT22;2331;48.806;9.140;2023-03-23T16:31:40;19.20;1.00
4637;DHT22;2331;48.806;9.140;2023-03-23T16:34:07;19.10;1.00
4637;DHT22;2331;48.806;9.140;2023-03-23T16:36:34;19.10;1.00
4637;DHT22;2331;48.806;9.140;2023-03-23T16:39:01;19.00;1.00
4637;DHT22;2331;48.806;9.140;2023-03-23T16:41:29;19.00;1.00
4637;DHT22;2331;48.806;9.140;2023-03-23T16:43:56;19.00;1.00